• Join FlightAware (Why Join?)
  • Login
  • US Flag 
Trick or treat! (Boo!!) 
02:14AM EDT


 

Airport Tracker/Info


-or-


 

Live Flight TrackerFlight Track Log ✈ AAY876 ✈ 27-Mar-2014 ✈ KPIE - KRFD

Flight Track Log - Related Links

Times and Time Zones

All times are in EDT time to prevent confusion due to time zone crossing. See the AAY876 flight status page for this flight to view local times or setup timezone preferences in your user account.

Time Position Orientation Groundspeed Altitude Reporting Facility
EDT Latitude Longitude Course Direction KTS MPH feet Rate Location/Type
03:03PM 27.9000 -82.6833 180° South 162 186 600  Level Tampa TRACON
03:04PM 27.8167 -82.6833 180° South 199 229 3,600 1,320 Climbing Tampa TRACON
03:05PM 27.8167 -82.7667 270° West 283 326 3,900 1,500 Climbing Tampa TRACON
03:06PM 27.8833 -82.8000 336° Northwest 285 328 6,600 2,640 Climbing Tampa TRACON
03:07PM 27.9500 -82.8000 360° North 293 337 9,200 1,620 Climbing Tampa TRACON
03:11PM 28.3231 -82.7817 North 378 435 14,600 1,560 Climbing Jacksonville Center
03:12PM 28.4317 -82.8053 349° North 393 452 17,000 2,100 Climbing Jacksonville Center
03:13PM 28.5403 -82.8289 349° North 398 458 18,900 1,680 Climbing Jacksonville Center
03:14PM 28.6508 -82.8500 350° North 398 458 20,400 1,620 Climbing Jacksonville Center
03:15PM 28.7761 -82.8761 350° North 403 464 22,200 1,860 Climbing Jacksonville Center
03:16PM 28.8928 -82.8997 350° North 414 476 24,100 1,500 Climbing Jacksonville Center
03:17PM 29.0139 -82.9233 350° North 419 482 25,300 900 Climbing Jacksonville Center
03:18PM 29.1308 -82.9497 349° North 424 488 26,000 840 Climbing Jacksonville Center
03:19PM 29.2539 -82.9758 350° North 436 502 27,000 1,200 Climbing Jacksonville Center
03:20PM 29.3750 -82.9997 350° North 436 502 28,500 1,200 Climbing Jacksonville Center
03:21PM 29.4939 -83.0261 349° North 436 502 29,500 660 Climbing Jacksonville Center
03:22PM 29.6025 -83.0525 348° North 431 496 29,900 180 Climbing Jacksonville Center
03:23PM 29.7131 -83.1031 338° Northwest 431 496 29,900  Level Jacksonville Center
03:24PM 29.8236 -83.1511 339° North 426 490 29,900  Level Jacksonville Center
03:25PM 29.9278 -83.2042 336° Northwest 420 483 29,900  Level Jacksonville Center
03:26PM 30.0406 -83.2525 340° North 415 478 30,000 120 Climbing Jacksonville Center
03:27PM 30.1469 -83.3033 338° Northwest 415 478 30,200 600 Climbing Jacksonville Center
03:28PM 30.2553 -83.3519 339° North 415 478 31,200 840 Climbing Jacksonville Center
03:29PM 30.3594 -83.4031 337° Northwest 415 478 31,900 300 Climbing Jacksonville Center
03:30PM 30.4658 -83.4517 339° North 415 478 31,900  Level Jacksonville Center
03:31PM 30.5719 -83.5031 337° Northwest 415 478 31,900  Level Jacksonville Center
03:32PM 30.6783 -83.5544 337° Northwest 415 478 31,900  Level Jacksonville Center
03:33PM 30.7947 -83.6108 337° Northwest 410 472 32,000  Climbing Jacksonville Center
03:34PM 30.9011 -83.6600 338° Northwest 410 472 32,000  Level Jacksonville Center
03:35PM 31.0092 -83.7094 339° North 416 479 32,000  Level Jacksonville Center
03:37PM 31.1997 -83.8033 337° Northwest 431 496 32,000  Level Atlanta Center
03:38PM 31.3061 -83.8542 338° Northwest 426 490 32,000  Level Atlanta Center
03:39PM 31.4147 -83.9075 337° Northwest 414 476 32,000  Level Atlanta Center
03:40PM 31.5108 -83.9536 338° Northwest 414 476 32,000  Level Atlanta Center
03:41PM 31.6275 -83.9878 346° North 419 482 32,000  Level Atlanta Center
03:42PM 31.7486 -84.0119 350° North 424 488 32,000  Level Atlanta Center
03:43PM 31.8656 -84.0364 350° North 430 495 32,000  Level Atlanta Center
03:44PM 31.9867 -84.0633 349° North 430 495 32,000  Level Atlanta Center
03:45PM 32.1056 -84.0878 350° North 430 495 32,000  Level Atlanta Center
03:46PM 32.2225 -84.1150 349° North 430 495 32,000  Level Atlanta Center
03:47PM 32.3414 -84.1422 349° North 430 495 32,000  Level Atlanta Center
03:48PM 32.4603 -84.1692 349° North 430 495 32,000  Level Atlanta Center
03:49PM 32.5772 -84.1942 350° North 430 495 32,000  Level Atlanta Center
03:50PM 32.6919 -84.2214 349° North 430 495 32,000  Level Atlanta Center
03:51PM 32.8108 -84.2539 347° North 430 495 32,000  Level Atlanta Center
03:52PM 32.9403 -84.2814 350° North 430 495 32,000  Level Atlanta Center
03:53PM 33.0550 -84.3089 349° North 430 495 32,000  Level Atlanta Center
03:54PM 33.1761 -84.3342 350° North 430 495 32,000  Level Atlanta Center
03:55PM 33.2928 -84.3619 349° North 430 495 32,000  Level Atlanta Center
03:56PM 33.4097 -84.3872 350° North 430 495 32,000  Level Atlanta Center
03:57PM 33.5286 -84.4150 349° North 429 494 32,000  Level Atlanta Center
03:58PM 33.6453 -84.4406 350° North 424 488 32,000  Level Atlanta Center
03:59PM 33.7622 -84.4686 349° North 424 488 32,000  Level Atlanta Center
04:00PM 33.8789 -84.4967 349° North 429 494 32,000  Level Atlanta Center
04:01PM 33.9708 -84.5197 348° North 424 488 32,000  Level Atlanta Center
04:02PM 34.1000 -84.5531 348° North 429 494 32,000  Level Atlanta Center
04:03PM 34.2292 -84.5789 351° North 424 488 32,000  Level Atlanta Center
04:04PM 34.3439 -84.6072 348° North 424 488 32,000  Level Atlanta Center
04:05PM 34.4586 -84.6358 348° North 419 482 32,000  Level Atlanta Center
04:06PM 34.5711 -84.6619 349° North 414 476 32,000  Level Atlanta Center
04:07PM 34.6711 -84.6903 347° North 414 476 32,000  Level Atlanta Center
04:08PM 34.7858 -84.7192 348° North 414 476 32,000  Level Atlanta Center
04:09PM 34.9025 -84.7478 349° North 414 476 32,000  Level Atlanta Center
04:10PM 35.0150 -84.7767 348° North 414 476 32,000  Level Atlanta Center
04:11PM 35.1400 -84.8083 348° North 414 476 32,000  Level Atlanta Center
04:12PM 35.2547 -84.8375 348° North 414 476 32,000  Level Atlanta Center
04:13PM 35.3692 -84.8639 349° North 414 476 32,000  Level Atlanta Center
04:14PM 35.4817 -84.8931 348° North 414 476 32,000  Level Atlanta Center
04:15PM 35.5961 -84.9225 348° North 414 476 32,000  Level Atlanta Center
04:17PM 35.8117 -84.9756 349° North 419 482 32,000  Level Indianapolis Center
04:18PM 35.9258 -85.0042 349° North 419 482 32,000  Level Indianapolis Center
04:19PM 36.0564 -85.0378 348° North 418 481 32,000  Level Indianapolis Center
04:20PM 36.1697 -85.0664 348° North 418 481 32,000  Level Indianapolis Center
04:21PM 36.2839 -85.0958 348° North 417 480 32,000  Level Indianapolis Center
04:22PM 36.3969 -85.1247 348° North 417 480 32,000  Level Indianapolis Center
04:23PM 36.5114 -85.1553 348° North 417 480 32,000  Level Indianapolis Center
04:24PM 36.6244 -85.1836 349° North 414 476 32,000  Level Indianapolis Center
04:25PM 36.7606 -85.2192 348° North 416 479 32,000  Level Indianapolis Center
04:26PM 36.8750 -85.2494 348° North 416 479 32,000  Level Indianapolis Center
04:27PM 36.9886 -85.2792 348° North 417 480 32,000  Level Indianapolis Center
04:28PM 37.0981 -85.3081 348° North 417 480 32,000  Level Indianapolis Center
04:29PM 37.2314 -85.3439 348° North 418 481 32,000  Level Indianapolis Center
04:30PM 37.3467 -85.3742 348° North 418 481 32,000  Level Indianapolis Center
04:31PM 37.4611 -85.4036 348° North 418 481 32,000  Level Indianapolis Center
04:32PM 37.5769 -85.4397 346° North 423 487 32,000  Level Indianapolis Center
04:33PM 37.6842 -85.4983 337° Northwest 421 484 32,000  Level Indianapolis Center
04:34PM 37.7994 -85.5589 337° Northwest 418 481 32,000  Level Indianapolis Center
04:35PM 37.9053 -85.6161 337° Northwest 414 476 32,000  Level Indianapolis Center
04:36PM 38.0142 -85.6708 338° Northwest 414 476 32,000  Level Indianapolis Center
04:37PM 38.1203 -85.7292 337° Northwest 415 478 32,000  Level Indianapolis Center
04:38PM 38.2464 -85.7961 337° Northwest 412 474 32,000  Level Indianapolis Center
04:39PM 38.3542 -85.8539 337° Northwest 413 475 32,000  Level Indianapolis Center
04:40PM 38.4594 -85.9092 338° Northwest 414 476 32,000  Level Indianapolis Center
04:41PM 38.5664 -85.9669 337° Northwest 414 476 32,000  Level Indianapolis Center
04:42PM 38.6717 -86.0242 337° Northwest 414 476 32,000  Level Indianapolis Center
04:44PM 38.7786 -86.0822 337° Northwest 414 476 32,000  Level Indianapolis Center
04:45PM 38.8897 -86.1422 337° Northwest 414 476 32,000  Level Indianapolis Center
04:46PM 39.0183 -86.2108 337° Northwest 414 476 32,000  Level Indianapolis Center
04:47PM 39.1258 -86.2694 337° Northwest 415 478 32,000  Level Indianapolis Center
04:48PM 39.2322 -86.3278 337° Northwest 415 478 32,000  Level Indianapolis Center
04:49PM 39.3400 -86.3878 337° Northwest 416 479 32,000  Level Indianapolis Center
04:50PM 39.4481 -86.4469 337° Northwest 417 480 32,000  Level Indianapolis Center
04:51PM 39.5569 -86.5078 337° Northwest 418 481 32,000  Level Indianapolis Center
04:52PM 39.6675 -86.5669 338° Northwest 419 482 32,000  Level Indianapolis Center
04:53PM 39.7772 -86.6289 337° Northwest 422 486 32,000  Level Indianapolis Center
04:54PM 39.9086 -86.7019 337° Northwest 423 487 32,000  Level Indianapolis Center
04:55PM 40.0178 -86.7636 337° Northwest 423 487 32,000  Level Indianapolis Center
04:56PM 40.1267 -86.8250 337° Northwest 423 487 32,000  Level Indianapolis Center
04:57PM 40.2361 -86.8869 337° Northwest 424 488 32,000  Level Indianapolis Center
04:58PM 40.3456 -86.9481 337° Northwest 426 490 32,000  Level Indianapolis Center
04:59PM 40.4556 -87.0117 336° Northwest 428 493 32,000  Level Indianapolis Center
05:00PM 40.5822 -87.0944 334° Northwest 426 490 32,000  Level Indianapolis Center
05:01PM 40.6628 -87.1992 315° West 411 473 32,000 -300 Level Indianapolis Center
05:02PM 40.7444 -87.3022 316° Northwest 409 471 31,400 -780 Descending Indianapolis Center
05:03PM 40.8269 -87.4044 317° Northwest 409 471 30,500 -960 Descending Indianapolis Center
05:04PM 40.9119 -87.5075 318° Northwest 411 473 29,500 -1,020 Descending Indianapolis Center
05:05PM 40.9967 -87.6153 316° Northwest 419 482 28,500 -780 Descending Indianapolis Center
05:06PM 41.0981 -87.7428 317° Northwest 420 483 28,000 -240 Descending Indianapolis Center
05:08PM 41.1978 -87.8689 316° Northwest 421 484 28,000  Level Chicago Center
05:09PM 41.2803 -87.9769 315° West 418 481 28,000  Level Chicago Center
05:10PM 41.3814 -88.1072 316° Northwest 421 484 28,000 -540 Level Chicago Center
05:11PM 41.4661 -88.2150 316° Northwest 422 486 27,000 -1,500 Descending Chicago Center
05:12PM 41.5439 -88.3336 311° West 427 491 25,000 -1,500 Descending Chicago Center
05:13PM 41.5728 -88.4803 285° West 414 476 24,000 -1,680 Descending Chicago Center
05:14PM 41.5972 -88.6281 283° West 397 457 21,600 -2,820 Descending Chicago Center
05:15PM 41.6217 -88.7856 282° West 378 435 18,200 -3,180 Descending Chicago Center
05:16PM 41.6467 -88.9231 284° West 368 423 15,100 -2,040 Descending Chicago Center
05:17PM 41.6739 -89.0519 286° West 364 419 14,000 -540 Descending Chicago Center
05:18PM 41.6989 -89.1781 285° West 358 412 14,000 -540 Level Chicago Center
05:19PM 41.7414 -89.2881 297° West 348 400 13,000 -480 Descending Chicago Center
05:20PM 41.8417 -89.2928 358° North 376 433 13,100 -420 Climbing Chicago Center
05:21PM 41.9367 -89.2406 22° Northeast 372 428 12,200 -1,560 Descending Chicago Center
05:22PM 42.0461 -89.2033 14° North 331 381 9,900 -2,280 Descending Chicago Center
05:23PM 42.1281 -89.1817 11° North 302 348 7,500 -2,340 Descending Chicago Center
05:24PM 42.2050 -89.1611 11° North 285 328 5,100 -2,100 Descending Chicago Center
05:25PM 42.2886 -89.1358 13° North 279 321 3,200 -1,260 Descending Chicago Center
05:26PM 42.3472 -89.1264 North 229 264 2,500 -360 Descending Chicago Center
05:27PM 42.3611 -89.0681 72° East 185 213 2,500 -60 Level Chicago Center
05:28PM 42.3253 -89.0675 179° South 148 170 2,400 -60 Descending Chicago Center
05:29PM 42.2894 -89.0697 183° South 142 163 2,400  Level Chicago Center